sensor_id;sensor_type;location;lat;lon;timestamp;pressure;altitude;pressure_sealevel;temperature;humidity
13800;BME280;6971;50.028;9.258;2023-09-30T00:01:22;100191.97;;;15.14;100.00
13800;BME280;6971;50.028;9.258;2023-09-30T00:06:22;100192.56;;;15.20;100.00
13800;BME280;6971;50.028;9.258;2023-09-30T00:11:23;100189.97;;;15.04;100.00
13800;BME280;6971;50.028;9.258;2023-09-30T00:16:23;100196.63;;;15.11;100.00
13800;BME280;6971;50.028;9.258;2023-09-30T00:21:24;100206.00;;;15.02;100.00
13800;BME280;6971;50.028;9.258;2023-09-30T00:26:25;100208.28;;;15.08;100.00
13800;BME280;6971;50.028;9.258;2023-09-30T00:31:25;100233.63;;;15.14;100.00
13800;BME280;6971;50.028;9.258;2023-09-30T00:36:25;100236.81;;;15.05;100.00
13800;BME280;6971;50.028;9.258;2023-09-30T00:41:26;100240.13;;;15.08;100.00
13800;BME280;6971;50.028;9.258;2023-09-30T00:46:31;100247.06;;;15.11;100.00
13800;BME280;6971;50.028;9.258;2023-09-30T00:51:32;100251.38;;;14.83;100.00
13800;BME280;6971;50.028;9.258;2023-09-30T00:56:33;100246.91;;;14.67;100.00
13800;BME280;6971;50.028;9.258;2023-09-30T01:01:34;100247.94;;;14.65;100.00
13800;BME280;6971;50.028;9.258;2023-09-30T01:06:36;100257.00;;;14.77;100.00
13800;BME280;6971;50.028;9.258;2023-09-30T01:11:37;100259.84;;;14.73;100.00
13800;BME280;6971;50.028;9.258;2023-09-30T01:16:37;100258.06;;;14.58;100.00
13800;BME280;6971;50.028;9.258;2023-09-30T01:21:37;100254.66;;;14.56;100.00
13800;BME280;6971;50.028;9.258;2023-09-30T01:26:38;100266.31;;;14.53;100.00
13800;BME280;6971;50.028;9.258;2023-09-30T01:31:38;100262.34;;;14.44;100.00
13800;BME280;6971;50.028;9.258;2023-09-30T01:36:39;100275.56;;;14.30;100.00
13800;BME280;6971;50.028;9.258;2023-09-30T01:41:40;100280.34;;;14.23;100.00
13800;BME280;6971;50.028;9.258;2023-09-30T01:46:40;100285.53;;;14.08;100.00
13800;BME280;6971;50.028;9.258;2023-09-30T01:51:41;100278.97;;;14.00;100.00
13800;BME280;6971;50.028;9.258;2023-09-30T01:56:41;100284.41;;;13.80;100.00
13800;BME280;6971;50.028;9.258;2023-09-30T02:01:41;100279.38;;;13.76;100.00
13800;BME280;6971;50.028;9.258;2023-09-30T02:06:42;100269.75;;;13.73;100.00
13800;BME280;6971;50.028;9.258;2023-09-30T02:11:42;100271.38;;;13.42;100.00
13800;BME280;6971;50.028;9.258;2023-09-30T02:16:43;100279.78;;;13.32;100.00
13800;BME280;6971;50.028;9.258;2023-09-30T02:21:43;100262.47;;;13.27;100.00
13800;BME280;6971;50.028;9.258;2023-09-30T02:26:44;100275.06;;;13.04;100.00
13800;BME280;6971;50.028;9.258;2023-09-30T02:31:44;100280.00;;;13.12;100.00
13800;BME280;6971;50.028;9.258;2023-09-30T02:36:45;100295.13;;;12.90;100.00
13800;BME280;6971;50.028;9.258;2023-09-30T02:41:45;100300.50;;;12.71;100.00
13800;BME280;6971;50.028;9.258;2023-09-30T02:46:46;100294.06;;;12.58;100.00
13800;BME280;6971;50.028;9.258;2023-09-30T02:51:47;100295.88;;;12.57;100.00
13800;BME280;6971;50.028;9.258;2023-09-30T02:56:47;100303.19;;;12.52;100.00
13800;BME280;6971;50.028;9.258;2023-09-30T03:01:48;100296.78;;;12.38;100.00
13800;BME280;6971;50.028;9.258;2023-09-30T03:06:49;100295.09;;;12.18;100.00
13800;BME280;6971;50.028;9.258;2023-09-30T03:11:49;100298.44;;;12.22;100.00
13800;BME280;6971;50.028;9.258;2023-09-30T03:16:50;100317.25;;;11.95;100.00
13800;BME280;6971;50.028;9.258;2023-09-30T03:21:50;100324.81;;;12.02;100.00
13800;BME280;6971;50.028;9.258;2023-09-30T03:26:50;100321.19;;;12.05;100.00
13800;BME280;6971;50.028;9.258;2023-09-30T03:31:51;100317.56;;;12.08;100.00
13800;BME280;6971;50.028;9.258;2023-09-30T03:36:52;100304.53;;;12.03;100.00
13800;BME280;6971;50.028;9.258;2023-09-30T03:41:55;100305.22;;;11.87;100.00
13800;BME280;6971;50.028;9.258;2023-09-30T03:46:56;100310.28;;;11.73;100.00
13800;BME280;6971;50.028;9.258;2023-09-30T03:51:59;100314.84;;;11.69;100.00
13800;BME280;6971;50.028;9.258;2023-09-30T03:56:59;100316.03;;;11.62;100.00
13800;BME280;6971;50.028;9.258;2023-09-30T04:02:00;100324.50;;;11.49;100.00
13800;BME280;6971;50.028;9.258;2023-09-30T04:07:01;100338.56;;;11.50;100.00
13800;BME280;6971;50.028;9.258;2023-09-30T04:12:01;100338.69;;;11.47;100.00
13800;BME280;6971;50.028;9.258;2023-09-30T04:17:02;100337.97;;;11.43;100.00
13800;BME280;6971;50.028;9.258;2023-09-30T04:22:02;100329.06;;;11.46;100.00
13800;BME280;6971;50.028;9.258;2023-09-30T04:27:02;100328.41;;;11.41;100.00
13800;BME280;6971;50.028;9.258;2023-09-30T04:32:04;100326.81;;;11.36;100.00
13800;BME280;6971;50.028;9.258;2023-09-30T04:37:05;100331.81;;;11.43;100.00
13800;BME280;6971;50.028;9.258;2023-09-30T04:42:05;100339.97;;;11.38;100.00
13800;BME280;6971;50.028;9.258;2023-09-30T04:47:05;100347.00;;;11.38;100.00
13800;BME280;6971;50.028;9.258;2023-09-30T04:52:06;100353.72;;;11.24;100.00
13800;BME280;6971;50.028;9.258;2023-09-30T04:57:08;100370.75;;;11.38;100.00
13800;BME280;6971;50.028;9.258;2023-09-30T05:02:08;100371.88;;;11.32;100.00
13800;BME280;6971;50.028;9.258;2023-09-30T05:07:09;100361.25;;;11.33;100.00
13800;BME280;6971;50.028;9.258;2023-09-30T05:12:09;100364.78;;;11.12;100.00
13800;BME280;6971;50.028;9.258;2023-09-30T05:17:09;100364.28;;;11.24;100.00
13800;BME280;6971;50.028;9.258;2023-09-30T05:22:10;100367.53;;;11.08;100.00
13800;BME280;6971;50.028;9.258;2023-09-30T05:27:10;100370.44;;;11.02;100.00
13800;BME280;6971;50.028;9.258;2023-09-30T05:32:11;100375.28;;;11.13;100.00
13800;BME280;6971;50.028;9.258;2023-09-30T05:37:12;100354.97;;;11.15;100.00
13800;BME280;6971;50.028;9.258;2023-09-30T05:42:12;100367.38;;;11.13;100.00
13800;BME280;6971;50.028;9.258;2023-09-30T05:47:13;100393.47;;;10.99;100.00
13800;BME280;6971;50.028;9.258;2023-09-30T05:52:13;100393.69;;;10.92;100.00
13800;BME280;6971;50.028;9.258;2023-09-30T05:57:13;100403.41;;;10.92;100.00
13800;BME280;6971;50.028;9.258;2023-09-30T06:02:14;100398.41;;;11.06;100.00
13800;BME280;6971;50.028;9.258;2023-09-30T06:07:15;100398.47;;;11.05;100.00
13800;BME280;6971;50.028;9.258;2023-09-30T06:12:15;100400.81;;;10.90;100.00
13800;BME280;6971;50.028;9.258;2023-09-30T06:17:16;100406.66;;;10.99;100.00
13800;BME280;6971;50.028;9.258;2023-09-30T06:22:16;100415.47;;;11.20;100.00
13800;BME280;6971;50.028;9.258;2023-09-30T06:27:17;100428.38;;;11.26;100.00
13800;BME280;6971;50.028;9.258;2023-09-30T06:32:18;100417.59;;;11.53;100.00
13800;BME280;6971;50.028;9.258;2023-09-30T06:37:19;100415.09;;;11.71;100.00
13800;BME280;6971;50.028;9.258;2023-09-30T06:42:20;100412.34;;;11.95;100.00
13800;BME280;6971;50.028;9.258;2023-09-30T06:47:20;100418.81;;;12.08;100.00
13800;BME280;6971;50.028;9.258;2023-09-30T06:52:20;100434.25;;;12.18;100.00
13800;BME280;6971;50.028;9.258;2023-09-30T06:57:21;100431.22;;;12.27;100.00
13800;BME280;6971;50.028;9.258;2023-09-30T07:02:22;100433.84;;;12.27;100.00
13800;BME280;6971;50.028;9.258;2023-09-30T07:07:22;100443.22;;;12.34;100.00
13800;BME280;6971;50.028;9.258;2023-09-30T07:12:23;100448.88;;;12.46;100.00
13800;BME280;6971;50.028;9.258;2023-09-30T07:17:23;100439.44;;;12.59;100.00
13800;BME280;6971;50.028;9.258;2023-09-30T07:22:23;100446.88;;;12.70;100.00
13800;BME280;6971;50.028;9.258;2023-09-30T07:27:24;100450.00;;;12.98;100.00
13800;BME280;6971;50.028;9.258;2023-09-30T07:32:25;100448.75;;;12.87;100.00
13800;BME280;6971;50.028;9.258;2023-09-30T07:37:25;100460.09;;;12.89;100.00
13800;BME280;6971;50.028;9.258;2023-09-30T07:42:25;100459.59;;;12.81;100.00
13800;BME280;6971;50.028;9.258;2023-09-30T07:47:26;100456.94;;;13.00;100.00
13800;BME280;6971;50.028;9.258;2023-09-30T07:52:26;100456.44;;;13.11;100.00
13800;BME280;6971;50.028;9.258;2023-09-30T07:57:26;100446.84;;;13.09;100.00
13800;BME280;6971;50.028;9.258;2023-09-30T08:02:28;100451.97;;;13.31;100.00
13800;BME280;6971;50.028;9.258;2023-09-30T08:07:36;100463.28;;;14.05;100.00
13800;BME280;6971;50.028;9.258;2023-09-30T08:12:36;100454.84;;;14.48;100.00
13800;BME280;6971;50.028;9.258;2023-09-30T08:17:37;100472.84;;;16.01;100.00
13800;BME280;6971;50.028;9.258;2023-09-30T08:22:37;100464.50;;;16.08;100.00
13800;BME280;6971;50.028;9.258;2023-09-30T08:27:37;100463.97;;;15.86;100.00
13800;BME280;6971;50.028;9.258;2023-09-30T08:32:39;100485.50;;;16.85;100.00
13800;BME280;6971;50.028;9.258;2023-09-30T08:37:39;100485.84;;;16.93;100.00
13800;BME280;6971;50.028;9.258;2023-09-30T08:42:40;100476.75;;;16.10;100.00
13800;BME280;6971;50.028;9.258;2023-09-30T08:47:41;100478.84;;;16.34;100.00
13800;BME280;6971;50.028;9.258;2023-09-30T08:52:42;100497.97;;;18.34;100.00
13800;BME280;6971;50.028;9.258;2023-09-30T08:57:43;100508.84;;;18.57;95.61
13800;BME280;6971;50.028;9.258;2023-09-30T09:02:44;100503.78;;;16.62;100.00
13800;BME280;6971;50.028;9.258;2023-09-30T09:07:44;100504.41;;;16.95;100.00
13800;BME280;6971;50.028;9.258;2023-09-30T09:12:54;100506.22;;;16.80;100.00
13800;BME280;6971;50.028;9.258;2023-09-30T09:17:56;100494.47;;;17.12;100.00
13800;BME280;6971;50.028;9.258;2023-09-30T09:22:56;100506.53;;;16.61;100.00
13800;BME280;6971;50.028;9.258;2023-09-30T09:28:00;100506.66;;;17.01;100.00
13800;BME280;6971;50.028;9.258;2023-09-30T09:33:05;100522.63;;;17.71;98.33
13800;BME280;6971;50.028;9.258;2023-09-30T09:38:07;100525.28;;;18.76;94.41
13800;BME280;6971;50.028;9.258;2023-09-30T09:43:09;100527.94;;;19.27;89.06
13800;BME280;6971;50.028;9.258;2023-09-30T09:48:11;100528.72;;;18.39;92.03
13800;BME280;6971;50.028;9.258;2023-09-30T09:53:11;100534.56;;;18.71;87.92
13800;BME280;6971;50.028;9.258;2023-09-30T09:58:16;100537.44;;;19.31;82.77
13800;BME280;6971;50.028;9.258;2023-09-30T10:03:18;100528.44;;;18.95;84.54
13800;BME280;6971;50.028;9.258;2023-09-30T10:08:20;100533.31;;;18.50;86.47
13800;BME280;6971;50.028;9.258;2023-09-30T10:19:22;100508.06;;;19.67;80.22
13800;BME280;6971;50.028;9.258;2023-09-30T10:29:39;100490.19;;;18.18;82.36
13800;BME280;6971;50.028;9.258;2023-09-30T10:34:47;100480.03;;;17.97;83.21
13800;BME280;6971;50.028;9.258;2023-09-30T10:39:58;100475.78;;;18.33;82.42
13800;BME280;6971;50.028;9.258;2023-09-30T10:44:59;100473.72;;;20.21;71.53
13800;BME280;6971;50.028;9.258;2023-09-30T10:49:59;100472.50;;;19.42;72.09
13800;BME280;6971;50.028;9.258;2023-09-30T10:55:03;100479.69;;;19.04;74.89
13800;BME280;6971;50.028;9.258;2023-09-30T11:00:11;100473.72;;;19.00;74.73
13800;BME280;6971;50.028;9.258;2023-09-30T11:05:12;100487.06;;;19.00;72.40
13800;BME280;6971;50.028;9.258;2023-09-30T11:10:17;100483.34;;;20.24;67.38
13800;BME280;6971;50.028;9.258;2023-09-30T11:15:18;100479.41;;;20.96;65.87
13800;BME280;6971;50.028;9.258;2023-09-30T11:20:19;100488.22;;;20.41;67.05
13800;BME280;6971;50.028;9.258;2023-09-30T11:25:19;100484.06;;;20.48;64.14
13800;BME280;6971;50.028;9.258;2023-09-30T11:30:19;100501.59;;;20.87;60.97
13800;BME280;6971;50.028;9.258;2023-09-30T11:35:23;100509.50;;;21.44;58.28
13800;BME280;6971;50.028;9.258;2023-09-30T11:40:24;100499.75;;;20.19;60.43
13800;BME280;6971;50.028;9.258;2023-09-30T11:45:24;100486.63;;;19.80;63.48
13800;BME280;6971;50.028;9.258;2023-09-30T11:50:25;100460.94;;;18.92;71.01
13800;BME280;6971;50.028;9.258;2023-09-30T11:55:25;100459.34;;;18.52;73.97
13800;BME280;6971;50.028;9.258;2023-09-30T12:00:27;100475.34;;;18.39;76.16
13800;BME280;6971;50.028;9.258;2023-09-30T12:05:27;100490.19;;;19.07;74.52
13800;BME280;6971;50.028;9.258;2023-09-30T12:10:29;100490.59;;;19.01;74.70
13800;BME280;6971;50.028;9.258;2023-09-30T12:15:31;100470.69;;;18.68;70.62
13800;BME280;6971;50.028;9.258;2023-09-30T12:20:31;100466.84;;;19.58;68.82
13800;BME280;6971;50.028;9.258;2023-09-30T12:25:32;100448.75;;;20.32;63.81
13800;BME280;6971;50.028;9.258;2023-09-30T12:30:33;100444.22;;;19.51;65.66
13800;BME280;6971;50.028;9.258;2023-09-30T12:35:34;100453.53;;;18.96;67.43
13800;BME280;6971;50.028;9.258;2023-09-30T12:40:34;100444.56;;;18.73;67.23
13800;BME280;6971;50.028;9.258;2023-09-30T12:45:34;100436.88;;;18.68;66.78
13800;BME280;6971;50.028;9.258;2023-09-30T12:50:35;100443.13;;;19.17;62.55
13800;BME280;6971;50.028;9.258;2023-09-30T12:55:35;100448.16;;;20.05;62.69
13800;BME280;6971;50.028;9.258;2023-09-30T13:00:36;100443.19;;;20.35;61.25
13800;BME280;6971;50.028;9.258;2023-09-30T13:05:36;100441.78;;;20.98;60.90
13800;BME280;6971;50.028;9.258;2023-09-30T13:10:37;100435.53;;;19.72;59.71
13800;BME280;6971;50.028;9.258;2023-09-30T13:15:38;100435.72;;;19.46;60.80
13800;BME280;6971;50.028;9.258;2023-09-30T13:20:38;100437.28;;;18.99;62.39
13800;BME280;6971;50.028;9.258;2023-09-30T13:25:39;100436.78;;;18.94;62.38
13800;BME280;6971;50.028;9.258;2023-09-30T13:30:39;100451.53;;;19.60;59.02
13800;BME280;6971;50.028;9.258;2023-09-30T13:35:40;100450.94;;;20.04;58.75
13800;BME280;6971;50.028;9.258;2023-09-30T13:40:41;100440.72;;;20.09;57.22
13800;BME280;6971;50.028;9.258;2023-09-30T13:45:41;100429.44;;;20.40;56.96
13800;BME280;6971;50.028;9.258;2023-09-30T13:50:41;100418.25;;;20.34;55.36
13800;BME280;6971;50.028;9.258;2023-09-30T13:55:42;100397.69;;;20.24;58.08
13800;BME280;6971;50.028;9.258;2023-09-30T14:00:47;100401.31;;;19.88;57.61
13800;BME280;6971;50.028;9.258;2023-09-30T14:05:48;100415.13;;;19.82;56.63
13800;BME280;6971;50.028;9.258;2023-09-30T14:10:49;100416.06;;;19.69;52.26
13800;BME280;6971;50.028;9.258;2023-09-30T14:15:51;100412.56;;;19.22;55.10
13800;BME280;6971;50.028;9.258;2023-09-30T14:20:52;100396.03;;;19.28;56.58
13800;BME280;6971;50.028;9.258;2023-09-30T14:25:54;100395.25;;;19.14;56.86
13800;BME280;6971;50.028;9.258;2023-09-30T14:30:55;100396.47;;;19.46;55.16
13800;BME280;6971;50.028;9.258;2023-09-30T14:35:56;100381.75;;;19.40;54.94
13800;BME280;6971;50.028;9.258;2023-09-30T14:40:57;100379.84;;;19.65;55.30
13800;BME280;6971;50.028;9.258;2023-09-30T14:46:01;100359.19;;;19.44;55.03
13800;BME280;6971;50.028;9.258;2023-09-30T14:51:01;100362.00;;;19.66;55.43
13800;BME280;6971;50.028;9.258;2023-09-30T14:56:14;100366.34;;;19.08;55.43
13800;BME280;6971;50.028;9.258;2023-09-30T15:01:15;100363.44;;;19.11;57.86
13800;BME280;6971;50.028;9.258;2023-09-30T15:06:15;100359.41;;;19.05;57.53
13800;BME280;6971;50.028;9.258;2023-09-30T15:11:15;100359.66;;;18.89;59.05
13800;BME280;6971;50.028;9.258;2023-09-30T15:16:20;100360.31;;;18.31;65.54
13800;BME280;6971;50.028;9.258;2023-09-30T15:21:21;100362.16;;;17.92;71.59
13800;BME280;6971;50.028;9.258;2023-09-30T15:26:21;100354.44;;;17.22;81.16
13800;BME280;6971;50.028;9.258;2023-09-30T15:31:29;100360.88;;;16.77;88.76
13800;BME280;6971;50.028;9.258;2023-09-30T15:36:33;100352.44;;;16.14;95.16
13800;BME280;6971;50.028;9.258;2023-09-30T15:41:33;100358.78;;;15.68;100.00
13800;BME280;6971;50.028;9.258;2023-09-30T15:46:34;100357.06;;;15.21;100.00
13800;BME280;6971;50.028;9.258;2023-09-30T15:51:34;100353.53;;;14.90;100.00
13800;BME280;6971;50.028;9.258;2023-09-30T15:56:35;100347.56;;;14.86;100.00
13800;BME280;6971;50.028;9.258;2023-09-30T16:01:35;100367.81;;;14.71;100.00
13800;BME280;6971;50.028;9.258;2023-09-30T16:06:35;100362.31;;;14.76;100.00
13800;BME280;6971;50.028;9.258;2023-09-30T16:11:36;100364.50;;;14.52;100.00
13800;BME280;6971;50.028;9.258;2023-09-30T16:16:36;100362.53;;;14.39;100.00
13800;BME280;6971;50.028;9.258;2023-09-30T16:21:36;100360.91;;;14.20;100.00
13800;BME280;6971;50.028;9.258;2023-09-30T16:26:37;100359.38;;;13.82;100.00
13800;BME280;6971;50.028;9.258;2023-09-30T16:31:37;100364.78;;;13.63;100.00
13800;BME280;6971;50.028;9.258;2023-09-30T16:36:38;100365.00;;;13.58;100.00
13800;BME280;6971;50.028;9.258;2023-09-30T16:41:39;100370.44;;;13.20;100.00
13800;BME280;6971;50.028;9.258;2023-09-30T16:46:40;100364.25;;;13.02;100.00
13800;BME280;6971;50.028;9.258;2023-09-30T16:51:40;100364.19;;;13.03;100.00
13800;BME280;6971;50.028;9.258;2023-09-30T16:56:40;100366.84;;;12.66;100.00
13800;BME280;6971;50.028;9.258;2023-09-30T17:01:41;100352.97;;;12.61;100.00
13800;BME280;6971;50.028;9.258;2023-09-30T17:06:41;100344.50;;;12.35;100.00
13800;BME280;6971;50.028;9.258;2023-09-30T17:11:42;100353.28;;;12.17;100.00
13800;BME280;6971;50.028;9.258;2023-09-30T17:16:42;100358.34;;;11.81;100.00
13800;BME280;6971;50.028;9.258;2023-09-30T17:21:42;100368.72;;;11.65;100.00
13800;BME280;6971;50.028;9.258;2023-09-30T17:26:43;100356.97;;;11.52;100.00
13800;BME280;6971;50.028;9.258;2023-09-30T17:31:43;100356.63;;;11.39;100.00
13800;BME280;6971;50.028;9.258;2023-09-30T17:36:43;100361.44;;;11.29;100.00
13800;BME280;6971;50.028;9.258;2023-09-30T17:41:44;100368.69;;;11.23;100.00
13800;BME280;6971;50.028;9.258;2023-09-30T17:46:45;100372.66;;;11.13;100.00
13800;BME280;6971;50.028;9.258;2023-09-30T17:51:45;100365.50;;;10.94;100.00
13800;BME280;6971;50.028;9.258;2023-09-30T17:56:49;100378.56;;;10.75;100.00
13800;BME280;6971;50.028;9.258;2023-09-30T18:01:49;100380.94;;;10.81;100.00
13800;BME280;6971;50.028;9.258;2023-09-30T18:06:49;100380.63;;;10.67;100.00
13800;BME280;6971;50.028;9.258;2023-09-30T18:11:50;100376.06;;;10.48;100.00
13800;BME280;6971;50.028;9.258;2023-09-30T18:16:51;100393.34;;;10.31;100.00
13800;BME280;6971;50.028;9.258;2023-09-30T18:21:51;100399.53;;;10.30;100.00
13800;BME280;6971;50.028;9.258;2023-09-30T18:26:52;100403.41;;;10.20;100.00
13800;BME280;6971;50.028;9.258;2023-09-30T18:31:52;100399.66;;;10.03;100.00
13800;BME280;6971;50.028;9.258;2023-09-30T18:36:52;100396.72;;;9.87;100.00
13800;BME280;6971;50.028;9.258;2023-09-30T18:41:53;100392.19;;;9.91;100.00
13800;BME280;6971;50.028;9.258;2023-09-30T18:46:53;100402.50;;;9.72;100.00
13800;BME280;6971;50.028;9.258;2023-09-30T18:51:54;100396.44;;;9.70;100.00
13800;BME280;6971;50.028;9.258;2023-09-30T18:56:54;100396.69;;;9.62;100.00
13800;BME280;6971;50.028;9.258;2023-09-30T19:01:55;100402.09;;;9.59;100.00
13800;BME280;6971;50.028;9.258;2023-09-30T19:06:55;100397.53;;;9.37;100.00
13800;BME280;6971;50.028;9.258;2023-09-30T19:11:56;100392.38;;;9.34;100.00
13800;BME280;6971;50.028;9.258;2023-09-30T19:16:56;100390.91;;;9.25;100.00
13800;BME280;6971;50.028;9.258;2023-09-30T19:21:57;100396.22;;;9.23;100.00
13800;BME280;6971;50.028;9.258;2023-09-30T19:26:57;100389.53;;;9.13;100.00
13800;BME280;6971;50.028;9.258;2023-09-30T19:31:58;100397.59;;;9.08;100.00
13800;BME280;6971;50.028;9.258;2023-09-30T19:37:00;100398.84;;;8.96;100.00
13800;BME280;6971;50.028;9.258;2023-09-30T19:42:00;100400.75;;;8.91;100.00
13800;BME280;6971;50.028;9.258;2023-09-30T19:47:00;100400.03;;;8.86;100.00
13800;BME280;6971;50.028;9.258;2023-09-30T19:52:03;100393.53;;;8.69;100.00
13800;BME280;6971;50.028;9.258;2023-09-30T19:57:03;100392.69;;;8.69;100.00
13800;BME280;6971;50.028;9.258;2023-09-30T20:02:04;100398.94;;;8.65;100.00
13800;BME280;6971;50.028;9.258;2023-09-30T20:07:05;100390.38;;;8.58;100.00
13800;BME280;6971;50.028;9.258;2023-09-30T20:12:06;100396.72;;;8.49;100.00
13800;BME280;6971;50.028;9.258;2023-09-30T20:17:08;100382.81;;;8.45;100.00
13800;BME280;6971;50.028;9.258;2023-09-30T20:22:08;100397.94;;;8.37;100.00
13800;BME280;6971;50.028;9.258;2023-09-30T20:27:09;100404.38;;;8.27;100.00
13800;BME280;6971;50.028;9.258;2023-09-30T20:32:10;100399.84;;;8.32;100.00
13800;BME280;6971;50.028;9.258;2023-09-30T20:37:10;100403.56;;;8.25;100.00
13800;BME280;6971;50.028;9.258;2023-09-30T20:42:10;100400.28;;;8.16;100.00
13800;BME280;6971;50.028;9.258;2023-09-30T20:47:11;100404.97;;;8.06;100.00
13800;BME280;6971;50.028;9.258;2023-09-30T20:52:11;100395.16;;;8.13;100.00
13800;BME280;6971;50.028;9.258;2023-09-30T20:57:11;100404.03;;;8.07;100.00
13800;BME280;6971;50.028;9.258;2023-09-30T21:02:12;100405.19;;;7.99;100.00
13800;BME280;6971;50.028;9.258;2023-09-30T21:07:12;100399.06;;;7.98;100.00
13800;BME280;6971;50.028;9.258;2023-09-30T21:12:13;100415.03;;;7.90;100.00
13800;BME280;6971;50.028;9.258;2023-09-30T21:17:14;100422.91;;;7.90;100.00
13800;BME280;6971;50.028;9.258;2023-09-30T21:22:14;100410.91;;;7.80;100.00
13800;BME280;6971;50.028;9.258;2023-09-30T21:27:15;100427.72;;;7.73;100.00
13800;BME280;6971;50.028;9.258;2023-09-30T21:32:15;100425.09;;;7.73;100.00
13800;BME280;6971;50.028;9.258;2023-09-30T21:37:15;100420.09;;;7.63;100.00
13800;BME280;6971;50.028;9.258;2023-09-30T21:42:16;100424.69;;;7.55;100.00
13800;BME280;6971;50.028;9.258;2023-09-30T21:47:16;100436.97;;;7.53;100.00
13800;BME280;6971;50.028;9.258;2023-09-30T21:52:17;100417.81;;;7.49;100.00
13800;BME280;6971;50.028;9.258;2023-09-30T21:57:17;100418.88;;;7.42;100.00
13800;BME280;6971;50.028;9.258;2023-09-30T22:02:19;100426.69;;;7.43;100.00
13800;BME280;6971;50.028;9.258;2023-09-30T22:07:19;100428.66;;;7.35;100.00
13800;BME280;6971;50.028;9.258;2023-09-30T22:12:22;100423.41;;;7.35;100.00
13800;BME280;6971;50.028;9.258;2023-09-30T22:17:22;100424.34;;;7.32;100.00
13800;BME280;6971;50.028;9.258;2023-09-30T22:22:23;100429.78;;;7.25;100.00
13800;BME280;6971;50.028;9.258;2023-09-30T22:27:23;100428.13;;;7.21;100.00
13800;BME280;6971;50.028;9.258;2023-09-30T22:32:24;100416.72;;;7.23;100.00
13800;BME280;6971;50.028;9.258;2023-09-30T22:37:24;100414.31;;;7.14;100.00
13800;BME280;6971;50.028;9.258;2023-09-30T22:42:25;100415.13;;;7.16;100.00
13800;BME280;6971;50.028;9.258;2023-09-30T22:47:25;100416.25;;;7.05;100.00
13800;BME280;6971;50.028;9.258;2023-09-30T22:52:26;100418.09;;;7.02;100.00
13800;BME280;6971;50.028;9.258;2023-09-30T22:57:26;100417.38;;;6.95;100.00
13800;BME280;6971;50.028;9.258;2023-09-30T23:02:27;100409.38;;;7.00;100.00
13800;BME280;6971;50.028;9.258;2023-09-30T23:07:29;100419.19;;;6.91;100.00
13800;BME280;6971;50.028;9.258;2023-09-30T23:12:29;100419.41;;;6.82;100.00
13800;BME280;6971;50.028;9.258;2023-09-30T23:17:30;100417.59;;;6.86;100.00
13800;BME280;6971;50.028;9.258;2023-09-30T23:22:30;100412.47;;;6.79;100.00
13800;BME280;6971;50.028;9.258;2023-09-30T23:27:31;100414.41;;;6.71;100.00
13800;BME280;6971;50.028;9.258;2023-09-30T23:32:31;100417.09;;;6.68;100.00
13800;BME280;6971;50.028;9.258;2023-09-30T23:37:31;100422.28;;;6.70;100.00
13800;BME280;6971;50.028;9.258;2023-09-30T23:42:32;100406.56;;;6.70;100.00
13800;BME280;6971;50.028;9.258;2023-09-30T23:47:32;100404.94;;;6.65;100.00
13800;BME280;6971;50.028;9.258;2023-09-30T23:52:36;100414.78;;;6.54;100.00
13800;BME280;6971;50.028;9.258;2023-09-30T23:57:37;100415.72;;;6.50;100.00
